Time;durP1;ratioP1;P1;durP2;ratioP2;P2;SDS_P1;SDS_P2;PMS_P1;PMS_P2;Temp;Humidity;BMP_temperature;BMP_pressure;BME280_temperature;BME280_humidity;BME280_pressure;Samples;Min_cycle;Max_cycle;Signal;HPM_P1;HPM_P2
2021/11/13 00:01:10;;;;;;;45.87;24.33;;;2.30;97.30;;;;;;5088398;28;20191;-76
2021/11/13 00:03:36;;;;;;;44.47;23.58;;;2.20;97.30;;;;;;5086581;28;20465;-77
2021/11/13 00:06:02;;;;;;;45.53;23.40;;;2.20;97.40;;;;;;5088839;28;20607;-75
2021/11/13 00:08:28;;;;;;;43.03;23.40;;;2.30;97.30;;;;;;5089254;28;20179;-75
2021/11/13 00:10:54;;;;;;;47.43;22.90;;;2.20;97.40;;;;;;5092642;28;20413;-76
2021/11/13 00:13:21;;;;;;;47.13;22.50;;;2.20;97.50;;;;;;5091039;28;20186;-76
2021/11/13 00:15:48;;;;;;;41.20;22.65;;;2.20;97.60;;;;;;5092287;28;20187;-75
2021/11/13 00:18:15;;;;;;;47.80;26.40;;;2.20;97.70;;;;;;5092523;28;20190;-76
2021/11/13 00:20:41;;;;;;;46.63;23.60;;;2.20;97.80;;;;;;5090880;28;20183;-76
2021/11/13 00:23:07;;;;;;;45.23;22.00;;;2.20;97.90;;;;;;5092321;28;20817;-76
2021/11/13 00:25:32;;;;;;;48.47;23.73;;;2.20;98.00;;;;;;5090423;28;20187;-77
2021/11/13 00:27:58;;;;;;;53.13;24.77;;;2.30;98.00;;;;;;5091138;28;20476;-75
2021/11/13 00:30:24;;;;;;;39.50;21.77;;;2.40;98.00;;;;;;5091940;28;20229;-76
2021/11/13 00:32:50;;;;;;;49.83;24.97;;;2.40;98.00;;;;;;5092004;28;20236;-74
2021/11/13 00:35:16;;;;;;;55.30;28.17;;;2.50;97.80;;;;;;5091095;28;20451;-76
2021/11/13 00:37:42;;;;;;;57.53;26.43;;;2.50;97.90;;;;;;5091926;28;20445;-77
2021/11/13 00:40:09;;;;;;;52.60;25.70;;;2.60;97.90;;;;;;5091170;28;21001;-75
2021/11/13 00:42:37;;;;;;;45.17;23.30;;;2.70;98.10;;;;;;5091613;28;20232;-77
2021/11/13 00:45:04;;;;;;;51.60;24.63;;;2.80;98.10;;;;;;5090236;28;20693;-77
2021/11/13 00:47:29;;;;;;;51.00;24.50;;;2.90;98.10;;;;;;5087543;28;20249;-76
2021/11/13 00:49:56;;;;;;;57.77;27.93;;;2.90;98.00;;;;;;5095778;28;20429;-76
2021/11/13 00:52:21;;;;;;;54.50;27.10;;;2.90;98.00;;;;;;5099813;28;20179;-76
2021/11/13 00:54:47;;;;;;;57.30;27.43;;;2.90;98.00;;;;;;5096819;28;20186;-76
2021/11/13 00:57:13;;;;;;;57.73;26.23;;;2.80;98.10;;;;;;5094453;28;20814;-77
2021/11/13 00:59:39;;;;;;;51.37;25.87;;;2.90;98.20;;;;;;5094494;28;20309;-77
2021/11/13 01:02:06;;;;;;;62.00;28.80;;;3.00;98.30;;;;;;5093792;28;21247;-76
2021/11/13 01:04:33;;;;;;;55.83;27.60;;;3.00;98.30;;;;;;5090515;28;20732;-75
2021/11/13 01:06:58;;;;;;;54.47;27.70;;;3.00;98.30;;;;;;5096597;28;21172;-75
2021/11/13 01:09:24;;;;;;;54.37;27.63;;;3.10;98.30;;;;;;5091374;28;20421;-75
2021/11/13 01:11:50;;;;;;;57.27;26.83;;;3.10;98.20;;;;;;5090686;28;20194;-75
2021/11/13 01:14:16;;;;;;;62.00;26.40;;;3.00;98.10;;;;;;5085357;28;20199;-76
2021/11/13 01:16:42;;;;;;;62.33;26.80;;;3.00;97.80;;;;;;5090594;28;20297;-76
2021/11/13 01:19:08;;;;;;;55.95;28.52;;;3.00;97.70;;;;;;5090577;28;20808;-76
2021/11/13 01:21:34;;;;;;;59.63;28.77;;;3.00;97.70;;;;;;5089148;28;20183;-75
2021/11/13 01:24:00;;;;;;;62.57;29.13;;;3.00;97.70;;;;;;5090779;28;20230;-75
2021/11/13 01:26:25;;;;;;;65.83;29.20;;;3.00;97.70;;;;;;5091915;28;20473;-77
2021/11/13 01:28:51;;;;;;;61.40;27.40;;;3.00;97.80;;;;;;5096442;28;20416;-76
2021/11/13 01:31:17;;;;;;;64.40;30.47;;;3.00;97.90;;;;;;5096897;28;20213;-75
2021/11/13 01:33:44;;;;;;;59.77;28.53;;;3.00;98.00;;;;;;5097483;28;20437;-76
2021/11/13 01:36:10;;;;;;;64.78;29.95;;;3.00;97.90;;;;;;5094293;28;20448;-76
2021/11/13 01:38:37;;;;;;;63.33;29.30;;;2.90;97.90;;;;;;5092367;28;21007;-75
2021/11/13 01:41:06;;;;;;;66.63;29.67;;;2.90;98.00;;;;;;5091848;28;20207;-76
2021/11/13 01:43:36;;;;;;;68.03;32.13;;;2.90;98.20;;;;;;5088993;28;20203;-77
2021/11/13 01:46:04;;;;;;;64.13;27.38;;;2.80;98.30;;;;;;5090590;28;20753;-75
2021/11/13 01:48:30;;;;;;;60.33;26.85;;;2.60;98.30;;;;;;5089943;28;20183;-76
2021/11/13 01:50:56;;;;;;;66.05;27.55;;;2.60;98.50;;;;;;5089941;28;20321;-75
2021/11/13 01:53:23;;;;;;;80.20;29.00;;;2.60;98.70;;;;;;5089748;28;20679;-76
2021/11/13 01:55:50;;;;;;;74.90;30.38;;;2.40;98.80;;;;;;5090951;28;20191;-76
2021/11/13 01:58:16;;;;;;;97.45;26.05;;;2.30;98.80;;;;;;5089687;28;20194;-74
2021/11/13 02:00:47;;;;;;;67.78;25.08;;;2.20;99.00;;;;;;5090410;28;20273;-77
2021/11/13 02:03:14;;;;;;;54.67;24.90;;;2.20;99.20;;;;;;5090341;28;20209;-75
2021/11/13 02:05:40;;;;;;;62.25;25.95;;;2.20;99.30;;;;;;5095824;28;20182;-77
2021/11/13 02:08:06;;;;;;;77.07;28.10;;;2.30;99.40;;;;;;5093322;28;20201;-76
2021/11/13 02:10:33;;;;;;;70.90;26.75;;;2.30;99.50;;;;;;5090319;28;20945;-76
2021/11/13 02:12:59;;;;;;;80.60;30.58;;;2.30;99.60;;;;;;5087428;28;20219;-77
2021/11/13 02:15:26;;;;;;;64.13;30.05;;;2.20;99.70;;;;;;5089608;28;20266;-76
2021/11/13 02:17:54;;;;;;;57.30;27.13;;;2.10;99.70;;;;;;5089202;28;20218;-76
2021/11/13 02:20:55;;;;;;;115.10;37.20;;;2.20;99.80;;;;;;5090344;28;20265;-76
2021/11/13 02:23:23;;;;;;;65.05;30.95;;;2.20;99.90;;;;;;5026542;28;20817;-75
2021/11/13 02:25:52;;;;;;;59.35;26.02;;;2.20;99.90;;;;;;5027316;28;20281;-75
2021/11/13 02:28:23;;;;;;;60.28;27.63;;;2.30;99.90;;;;;;5028228;28;20672;-76
2021/11/13 02:30:51;;;;;;;78.93;28.65;;;2.40;99.90;;;;;;5031089;28;20404;-77
2021/11/13 02:33:18;;;;;;;72.93;29.50;;;2.40;99.90;;;;;;5044339;28;20213;-76
2021/11/13 02:35:44;;;;;;;74.00;29.77;;;2.50;99.90;;;;;;5023467;28;20200;-75
2021/11/13 02:38:18;;;;;;;80.03;31.85;;;2.50;99.90;;;;;;5028092;28;20623;-76
2021/11/13 02:40:46;;;;;;;81.00;31.33;;;2.40;99.90;;;;;;5021911;28;20228;-75
2021/11/13 02:43:14;;;;;;;95.13;32.65;;;2.40;99.90;;;;;;5028652;28;20209;-76
2021/11/13 02:45:41;;;;;;;59.50;26.40;;;2.40;99.90;;;;;;5034003;28;20192;-77
2021/11/13 02:48:07;;;;;;;60.85;27.27;;;2.40;99.90;;;;;;5032513;28;20965;-76
2021/11/13 02:50:33;;;;;;;57.70;25.95;;;2.40;99.90;;;;;;5033349;28;20280;-76
2021/11/13 02:53:01;;;;;;;63.78;28.25;;;2.50;99.90;;;;;;5033668;28;20208;-76
2021/11/13 02:55:28;;;;;;;50.70;23.48;;;2.50;99.90;;;;;;5030842;28;20313;-76
2021/11/13 02:57:55;;;;;;;58.90;27.98;;;2.50;99.90;;;;;;5013985;28;20201;-76
2021/11/13 03:00:25;;;;;;;76.00;30.98;;;2.60;99.90;;;;;;5061869;28;20191;-75
2021/11/13 03:02:51;;;;;;;57.25;25.85;;;2.70;99.90;;;;;;5090862;28;20669;-76
2021/11/13 03:05:27;;;;;;;57.67;26.27;;;2.70;99.90;;;;;;5089778;28;20191;-76
2021/11/13 03:07:55;;;;;;;59.22;27.73;;;2.60;99.80;;;;;;5091011;28;20262;-76
2021/11/13 03:10:23;;;;;;;55.55;28.10;;;2.60;99.80;;;;;;5089252;28;20182;-75
2021/11/13 03:12:50;;;;;;;54.88;25.77;;;2.60;99.60;;;;;;5090422;28;20183;-76
2021/11/13 03:15:17;;;;;;;72.45;30.10;;;2.50;99.50;;;;;;5089119;28;20179;-75
2021/11/13 03:17:44;;;;;;;54.25;25.60;;;2.50;99.50;;;;;;5090379;28;20221;-77
2021/11/13 03:20:13;;;;;;;56.45;26.48;;;2.50;99.60;;;;;;5089740;28;20270;-75
2021/11/13 03:22:39;;;;;;;62.53;25.73;;;2.50;99.60;;;;;;5089927;28;20211;-75
2021/11/13 03:25:13;;;;;;;50.45;26.42;;;2.60;99.70;;;;;;5088043;28;20226;-75
2021/11/13 03:27:43;;;;;;;53.20;25.17;;;2.60;99.80;;;;;;5090275;28;20209;-76
2021/11/13 03:30:10;;;;;;;60.95;24.95;;;2.60;99.70;;;;;;5096470;28;20711;-76
2021/11/13 03:32:36;;;;;;;44.25;22.10;;;2.60;99.60;;;;;;5092658;28;20306;-75
2021/11/13 03:35:05;;;;;;;46.88;23.10;;;2.60;99.50;;;;;;5089082;28;20190;-75
2021/11/13 03:37:31;;;;;;;44.80;22.80;;;2.60;99.40;;;;;;5081431;28;20198;-76
2021/11/13 03:39:58;;;;;;;47.65;22.50;;;2.50;99.00;;;;;;5089109;28;20322;-75
2021/11/13 03:42:27;;;;;;;48.25;22.15;;;2.50;98.90;;;;;;5089645;28;20194;-76
2021/11/13 03:44:53;;;;;;;43.85;23.17;;;2.60;98.80;;;;;;5091649;28;20573;-75
2021/11/13 03:47:19;;;;;;;39.80;19.95;;;2.40;98.60;;;;;;5093754;28;20585;-75
2021/11/13 03:49:45;;;;;;;42.80;22.00;;;2.20;98.40;;;;;;5094398;28;20270;-76
2021/11/13 03:52:11;;;;;;;48.20;22.20;;;2.00;98.30;;;;;;5094347;28;20417;-76
2021/11/13 03:54:37;;;;;;;44.90;21.80;;;1.90;98.40;;;;;;5094985;28;20278;-77
2021/11/13 03:57:04;;;;;;;38.70;18.35;;;1.90;98.50;;;;;;5093896;28;20203;-76
2021/11/13 03:59:31;;;;;;;36.65;20.63;;;1.90;98.60;;;;;;5087859;28;20654;-76
2021/11/13 04:01:57;;;;;;;46.67;22.88;;;1.90;98.70;;;;;;5094211;28;20270;-76
2021/11/13 04:04:22;;;;;;;42.40;22.27;;;2.00;98.80;;;;;;5093730;28;20215;-75
2021/11/13 04:06:48;;;;;;;39.80;20.17;;;1.90;98.70;;;;;;5099043;28;20199;-75
2021/11/13 04:09:14;;;;;;;43.37;21.73;;;1.80;98.70;;;;;;5094741;28;20884;-77
2021/11/13 04:11:40;;;;;;;35.30;20.27;;;1.90;98.80;;;;;;5097517;28;20205;-76
2021/11/13 04:14:05;;;;;;;43.00;19.83;;;2.00;98.80;;;;;;5096077;28;20191;-76
2021/11/13 04:16:31;;;;;;;42.83;22.93;;;2.00;98.80;;;;;;5095702;28;20819;-76
2021/11/13 04:18:57;;;;;;;42.27;22.00;;;2.00;98.80;;;;;;5094278;28;20646;-75
2021/11/13 04:21:23;;;;;;;42.37;21.90;;;1.90;98.60;;;;;;5093175;28;20190;-76
2021/11/13 04:23:48;;;;;;;41.60;21.43;;;2.00;98.60;;;;;;5094175;28;20199;-76
2021/11/13 04:26:14;;;;;;;41.67;20.83;;;2.00;98.60;;;;;;5093490;28;20203;-75
2021/11/13 04:28:40;;;;;;;43.83;20.23;;;1.90;98.50;;;;;;5093168;28;20184;-75
2021/11/13 04:31:06;;;;;;;41.13;19.60;;;2.00;98.60;;;;;;5093064;28;20861;-75
2021/11/13 04:33:34;;;;;;;35.10;20.23;;;2.10;98.50;;;;;;5093701;28;20187;-75
2021/11/13 04:38:35;;;;;;;40.28;21.55;;;2.30;98.40;;;;;;5098526;28;20186;-76
2021/11/13 04:41:04;;;;;;;38.17;21.25;;;2.40;98.30;;;;;;5095428;28;20202;-76
2021/11/13 04:43:30;;;;;;;46.70;23.00;;;2.40;98.00;;;;;;5093080;28;20672;-77
2021/11/13 04:45:56;;;;;;;35.17;20.10;;;2.30;97.70;;;;;;5093171;28;20198;-76
2021/11/13 04:48:22;;;;;;;39.03;20.50;;;2.30;97.60;;;;;;5088781;28;20831;-76
2021/11/13 04:50:48;;;;;;;36.70;20.10;;;2.30;97.50;;;;;;5092611;28;20194;-76
2021/11/13 04:53:14;;;;;;;36.67;20.10;;;2.30;97.50;;;;;;5091926;28;20417;-75
2021/11/13 04:55:40;;;;;;;37.80;20.60;;;2.40;97.50;;;;;;5088915;28;20270;-76
2021/11/13 04:58:06;;;;;;;41.73;21.63;;;2.40;97.50;;;;;;5092159;28;20183;-75
2021/11/13 05:00:33;;;;;;;43.58;21.80;;;2.50;97.50;;;;;;5091942;28;20954;-75
2021/11/13 05:02:59;;;;;;;41.38;21.75;;;2.50;97.50;;;;;;5092359;28;20180;-76
2021/11/13 05:05:27;;;;;;;35.70;19.55;;;2.60;97.40;;;;;;5090975;28;20182;-76
2021/11/13 05:07:52;;;;;;;36.65;19.67;;;2.70;97.30;;;;;;5091846;28;20217;-75
2021/11/13 05:10:18;;;;;;;35.83;20.53;;;2.80;97.10;;;;;;5092173;28;20637;-77
2021/11/13 05:12:45;;;;;;;39.03;21.97;;;2.80;96.90;;;;;;5092564;28;20175;-76
2021/11/13 05:15:11;;;;;;;41.30;20.60;;;2.80;96.80;;;;;;5091426;28;20220;-76
2021/11/13 05:17:38;;;;;;;38.43;20.63;;;2.90;96.80;;;;;;5091964;28;20214;-77
2021/11/13 05:20:09;;;;;;;38.17;21.80;;;2.90;96.70;;;;;;5090196;28;20515;-74
2021/11/13 05:22:36;;;;;;;35.63;18.80;;;3.00;96.70;;;;;;5090781;28;20179;-77
2021/11/13 05:25:04;;;;;;;35.17;19.35;;;3.10;96.40;;;;;;5090961;28;20492;-75
2021/11/13 05:27:30;;;;;;;35.75;19.98;;;3.10;96.10;;;;;;5090322;28;20195;-76
2021/11/13 05:29:56;;;;;;;33.50;20.00;;;3.10;95.80;;;;;;5090268;28;20194;-76
2021/11/13 05:32:21;;;;;;;32.90;18.97;;;3.10;95.70;;;;;;5091680;28;20183;-75
2021/11/13 05:34:47;;;;;;;37.70;19.83;;;3.10;95.60;;;;;;5090647;28;20456;-75
2021/11/13 05:37:13;;;;;;;36.30;19.70;;;3.10;95.60;;;;;;5090731;28;20239;-77
2021/11/13 05:39:39;;;;;;;30.37;18.40;;;3.10;95.60;;;;;;5091754;28;20554;-77
2021/11/13 05:42:05;;;;;;;32.50;18.57;;;3.10;95.60;;;;;;5090398;28;20528;-76
2021/11/13 05:44:31;;;;;;;35.25;21.00;;;3.10;95.50;;;;;;5091265;28;20287;-76
2021/11/13 05:46:57;;;;;;;36.80;19.27;;;3.10;95.50;;;;;;5089691;28;20689;-77
2021/11/13 05:49:23;;;;;;;39.07;20.00;;;3.00;95.50;;;;;;5090404;28;20421;-75
2021/11/13 05:51:50;;;;;;;34.38;20.00;;;3.10;95.50;;;;;;5091284;28;20183;-75
2021/11/13 05:54:15;;;;;;;34.80;20.23;;;3.10;95.60;;;;;;5090517;28;20183;-76
2021/11/13 05:56:42;;;;;;;37.40;19.83;;;3.10;95.70;;;;;;5091111;28;20203;-75
2021/11/13 05:59:07;;;;;;;31.13;19.63;;;3.10;95.70;;;;;;5090014;28;20649;-76
2021/11/13 06:01:34;;;;;;;33.83;19.23;;;3.10;95.60;;;;;;5089665;28;20187;-75
2021/11/13 06:03:59;;;;;;;37.22;19.38;;;3.10;95.80;;;;;;5090247;28;20207;-77
2021/11/13 06:06:25;;;;;;;33.73;18.67;;;3.20;95.80;;;;;;5090221;28;20206;-76
2021/11/13 06:08:51;;;;;;;35.53;20.00;;;3.20;95.70;;;;;;5091710;28;20263;-75
2021/11/13 06:11:17;;;;;;;36.33;18.77;;;3.20;95.70;;;;;;5091681;28;20432;-76
2021/11/13 06:13:43;;;;;;;32.10;18.33;;;3.30;95.80;;;;;;5091215;28;20501;-76
2021/11/13 06:16:09;;;;;;;31.83;18.87;;;3.30;95.70;;;;;;5089955;28;20202;-76
2021/11/13 06:18:38;;;;;;;35.95;19.90;;;3.40;95.60;;;;;;5093384;28;20593;-76
2021/11/13 06:21:06;;;;;;;30.17;18.25;;;3.40;95.50;;;;;;5093775;28;20921;-75
2021/11/13 06:23:36;;;;;;;27.47;17.20;;;3.50;95.50;;;;;;5092802;28;20283;-76
2021/11/13 06:26:04;;;;;;;29.27;17.85;;;3.50;95.50;;;;;;5095075;28;20461;-76
2021/11/13 06:28:30;;;;;;;32.27;17.60;;;3.60;95.60;;;;;;5091639;28;20266;-76
2021/11/13 06:30:56;;;;;;;28.93;16.73;;;3.60;95.30;;;;;;5091118;28;20501;-77
2021/11/13 06:33:22;;;;;;;31.93;17.37;;;3.70;95.30;;;;;;5090557;28;20420;-76
2021/11/13 06:35:48;;;;;;;30.47;17.00;;;3.80;95.30;;;;;;5090140;28;20952;-76
2021/11/13 06:38:14;;;;;;;33.43;18.90;;;3.90;95.10;;;;;;5089183;28;20425;-76
2021/11/13 06:40:40;;;;;;;33.50;18.87;;;4.00;95.10;;;;;;5090637;28;20463;-76
2021/11/13 06:43:06;;;;;;;34.07;18.27;;;3.90;94.70;;;;;;5087305;28;20247;-75
2021/11/13 06:45:34;;;;;;;28.57;16.40;;;3.90;94.70;;;;;;5089975;28;20210;-77
2021/11/13 06:47:59;;;;;;;30.97;17.10;;;4.00;94.70;;;;;;5089794;28;20825;-76
2021/11/13 06:50:25;;;;;;;35.23;18.50;;;4.00;94.50;;;;;;5091297;28;20455;-77
2021/11/13 06:52:52;;;;;;;29.27;18.23;;;4.00;94.40;;;;;;5090690;28;20190;-76
2021/11/13 06:55:18;;;;;;;28.83;17.53;;;4.10;94.40;;;;;;5092614;28;20658;-76
2021/11/13 06:57:44;;;;;;;31.90;17.17;;;4.20;94.40;;;;;;5089239;28;20564;-76
2021/11/13 07:00:17;;;;;;;31.73;16.03;;;4.30;94.20;;;;;;5090650;28;20527;-76
2021/11/13 07:02:43;;;;;;;28.73;15.93;;;4.40;94.00;;;;;;5097948;28;20195;-75
2021/11/13 07:05:10;;;;;;;34.97;17.23;;;4.50;94.00;;;;;;5092340;28;20469;-75
2021/11/13 07:07:36;;;;;;;27.77;15.13;;;4.60;93.60;;;;;;5090985;28;20514;-78
2021/11/13 07:10:05;;;;;;;27.10;17.13;;;4.60;93.30;;;;;;5094274;28;21180;-76
2021/11/13 07:12:31;;;;;;;25.80;17.00;;;4.60;93.20;;;;;;5084092;28;20291;-76
2021/11/13 07:14:57;;;;;;;25.63;16.00;;;4.60;92.80;;;;;;5090728;28;20915;-76
2021/11/13 07:17:23;;;;;;;31.20;17.17;;;4.50;92.80;;;;;;5093239;28;20207;-75
2021/11/13 07:19:49;;;;;;;26.73;15.43;;;4.60;92.90;;;;;;5102389;28;20428;-76
2021/11/13 07:22:15;;;;;;;28.57;14.40;;;4.80;92.70;;;;;;5101788;28;20250;-75
2021/11/13 07:24:42;;;;;;;25.20;15.33;;;4.90;92.50;;;;;;5104442;28;20242;-75
2021/11/13 07:27:09;;;;;;;27.40;15.67;;;4.90;92.50;;;;;;5095166;28;20452;-76
2021/11/13 07:29:44;;;;;;;32.73;17.00;;;5.00;92.40;;;;;;5091706;28;20572;-75
2021/11/13 07:32:10;;;;;;;24.47;15.50;;;5.10;91.90;;;;;;5089942;28;20512;-76
2021/11/13 07:34:36;;;;;;;28.30;16.83;;;5.00;91.30;;;;;;5090709;28;20425;-76
2021/11/13 07:37:02;;;;;;;23.93;15.10;;;4.90;91.20;;;;;;5092426;28;20449;-76
2021/11/13 07:39:28;;;;;;;34.10;17.50;;;4.80;91.50;;;;;;5097017;28;20211;-76
2021/11/13 07:41:53;;;;;;;28.70;16.47;;;4.70;91.80;;;;;;5097805;28;20444;-75
2021/11/13 07:44:19;;;;;;;25.23;15.70;;;4.70;92.00;;;;;;5087292;28;20211;-76
2021/11/13 07:46:46;;;;;;;26.80;16.13;;;4.80;92.10;;;;;;5094571;28;20237;-76
2021/11/13 07:49:12;;;;;;;28.13;15.87;;;4.80;92.10;;;;;;5091673;28;20290;-76
2021/11/13 07:51:38;;;;;;;29.63;16.13;;;4.90;91.80;;;;;;5090722;28;20460;-76
2021/11/13 07:54:04;;;;;;;29.83;15.83;;;5.00;91.80;;;;;;5089120;28;20872;-77
2021/11/13 07:56:29;;;;;;;27.90;16.93;;;5.20;91.60;;;;;;5089242;28;20449;-76
2021/11/13 07:58:56;;;;;;;34.70;17.00;;;5.30;91.10;;;;;;5088857;28;20946;-77
2021/11/13 08:01:22;;;;;;;28.97;15.63;;;5.40;90.70;;;;;;5088866;28;20195;-77
2021/11/13 08:03:48;;;;;;;25.17;15.60;;;5.50;90.60;;;;;;5088362;28;20500;-75
2021/11/13 08:06:14;;;;;;;24.40;15.17;;;5.60;90.50;;;;;;5089100;28;20490;-76
2021/11/13 08:08:40;;;;;;;26.17;15.63;;;5.70;90.40;;;;;;5089351;28;20433;-77
2021/11/13 08:11:06;;;;;;;25.10;14.80;;;5.90;90.10;;;;;;5085698;28;20433;-75
2021/11/13 08:13:33;;;;;;;24.50;15.27;;;6.00;89.70;;;;;;5087987;28;20421;-76
2021/11/13 08:15:59;;;;;;;27.50;15.07;;;6.20;88.90;;;;;;5089098;28;20636;-75
2021/11/13 08:18:25;;;;;;;25.70;14.80;;;6.30;88.30;;;;;;5087810;28;20433;-75
2021/11/13 08:20:51;;;;;;;22.03;13.47;;;6.40;87.70;;;;;;5090227;28;20443;-76
2021/11/13 08:23:17;;;;;;;21.40;12.93;;;6.60;87.30;;;;;;5091847;28;20500;-76
2021/11/13 08:25:44;;;;;;;21.53;12.50;;;6.60;86.60;;;;;;5090747;28;20507;-76
2021/11/13 08:28:11;;;;;;;21.00;12.80;;;6.70;85.30;;;;;;5088833;28;20435;-76
2021/11/13 08:30:38;;;;;;;22.23;13.43;;;6.80;84.70;;;;;;5091241;28;20782;-76
2021/11/13 08:33:07;;;;;;;17.20;11.40;;;6.80;84.30;;;;;;5090655;28;20436;-76
2021/11/13 08:35:34;;;;;;;24.23;13.80;;;6.90;84.40;;;;;;5091910;28;20448;-77
2021/11/13 08:38:00;;;;;;;21.30;12.97;;;7.00;84.10;;;;;;5092474;28;20436;-77
2021/11/13 08:40:26;;;;;;;19.90;12.53;;;7.00;83.80;;;;;;5092168;28;20848;-77
2021/11/13 08:42:51;;;;;;;20.47;12.50;;;7.10;83.40;;;;;;5093406;28;20191;-76
2021/11/13 08:45:17;;;;;;;21.80;13.50;;;7.30;82.70;;;;;;5091771;28;20287;-77
2021/11/13 08:47:44;;;;;;;18.87;11.40;;;7.30;82.50;;;;;;5091040;28;20207;-76
2021/11/13 08:50:18;;;;;;;21.60;12.73;;;7.40;82.40;;;;;;5092000;28;20191;-77
2021/11/13 08:52:48;;;;;;;25.80;12.73;;;7.40;82.20;;;;;;5086416;28;20413;-77
2021/11/13 08:55:15;;;;;;;22.80;12.17;;;7.40;82.10;;;;;;5097259;28;20424;-76
2021/11/13 08:57:42;;;;;;;23.47;11.87;;;7.50;81.90;;;;;;5091331;28;20449;-77
2021/11/13 09:00:09;;;;;;;19.73;11.50;;;7.50;82.20;;;;;;5092014;28;20792;-75
2021/11/13 09:02:36;;;;;;;21.83;12.43;;;7.50;82.80;;;;;;5092199;28;20437;-77
2021/11/13 09:05:03;;;;;;;18.53;11.87;;;7.50;83.00;;;;;;5091375;28;20461;-76
2021/11/13 09:07:29;;;;;;;18.73;12.23;;;7.60;83.00;;;;;;5092334;28;20445;-76
2021/11/13 09:09:55;;;;;;;18.13;11.13;;;7.60;83.40;;;;;;5091989;28;20457;-77
2021/11/13 09:12:27;;;;;;;22.07;11.77;;;7.70;83.40;;;;;;5091402;28;20233;-77
2021/11/13 09:14:59;;;;;;;19.47;11.20;;;7.80;83.80;;;;;;5091439;28;20421;-76
2021/11/13 09:17:26;;;;;;;22.83;12.90;;;7.80;83.70;;;;;;5090306;28;20531;-77
2021/11/13 09:19:52;;;;;;;21.50;12.60;;;7.90;83.40;;;;;;5091930;28;20425;-76
2021/11/13 09:22:18;;;;;;;18.40;10.67;;;8.00;82.70;;;;;;5092125;28;20551;-76
2021/11/13 09:24:45;;;;;;;23.40;12.67;;;8.20;81.90;;;;;;5089701;28;20472;-76
2021/11/13 09:27:11;;;;;;;23.57;14.40;;;8.20;81.10;;;;;;5091358;28;20828;-76
2021/11/13 09:29:37;;;;;;;27.37;16.77;;;8.30;81.20;;;;;;5092414;28;20414;-76
2021/11/13 09:32:03;;;;;;;33.10;16.93;;;8.40;81.90;;;;;;5092182;28;20432;-76
2021/11/13 09:34:29;;;;;;;30.47;18.30;;;8.40;82.50;;;;;;5090102;28;20430;-76
2021/11/13 09:36:54;;;;;;;28.27;17.93;;;8.40;82.40;;;;;;5091832;28;20442;-76
2021/11/13 09:39:21;;;;;;;30.50;16.90;;;8.40;81.90;;;;;;5092366;28;20606;-77
2021/11/13 09:41:47;;;;;;;31.07;18.27;;;8.30;81.40;;;;;;5091706;28;20187;-75
2021/11/13 09:44:13;;;;;;;29.07;16.97;;;8.30;81.90;;;;;;5091635;28;20509;-76
2021/11/13 09:46:39;;;;;;;24.70;16.50;;;8.40;81.80;;;;;;5091618;28;20468;-76
2021/11/13 09:49:05;;;;;;;27.63;16.73;;;8.50;81.40;;;;;;5091161;28;20436;-76
2021/11/13 09:51:32;;;;;;;27.93;16.47;;;8.60;80.60;;;;;;5091880;28;20266;-76
2021/11/13 09:53:58;;;;;;;26.30;15.63;;;8.60;79.60;;;;;;5090069;28;20524;-76
2021/11/13 09:56:25;;;;;;;32.67;15.87;;;8.70;79.70;;;;;;5091646;28;20481;-77
2021/11/13 09:58:51;;;;;;;26.20;15.17;;;8.80;79.30;;;;;;5093148;28;20425;-75
2021/11/13 10:01:17;;;;;;;29.80;17.50;;;8.80;77.80;;;;;;5091963;28;20954;-75
2021/11/13 10:03:43;;;;;;;28.87;15.90;;;8.60;77.80;;;;;;5090238;28;20545;-76
2021/11/13 10:06:14;;;;;;;25.63;16.37;;;8.50;78.90;;;;;;5091830;28;20951;-76
2021/11/13 10:08:45;;;;;;;24.07;14.50;;;8.50;80.00;;;;;;5092606;28;20409;-76
2021/11/13 10:11:16;;;;;;;23.17;14.80;;;8.50;80.90;;;;;;5092409;28;20417;-76
2021/11/13 10:13:49;;;;;;;24.20;15.20;;;8.60;81.40;;;;;;5092798;28;20422;-77
2021/11/13 10:16:22;;;;;;;24.10;14.23;;;8.70;81.70;;;;;;5093288;28;20917;-76
2021/11/13 10:18:51;;;;;;;22.83;15.00;;;8.90;81.50;;;;;;5092729;28;20428;-77
2021/11/13 10:21:25;;;;;;;25.30;15.80;;;9.00;81.20;;;;;;5093054;28;20502;-76
2021/11/13 10:23:58;;;;;;;26.87;13.93;;;9.00;81.10;;;;;;5092047;28;20885;-75
2021/11/13 10:26:30;;;;;;;22.73;14.83;;;9.00;81.90;;;;;;5092844;28;20475;-76
2021/11/13 10:29:26;;;;;;;24.17;14.87;;;8.90;82.20;;;;;;5092881;28;20446;-75
2021/11/13 10:31:58;;;;;;;30.23;17.53;;;8.90;83.60;;;;;;5088134;28;20448;-76
2021/11/13 10:34:34;;;;;;;32.27;17.00;;;8.90;83.80;;;;;;5092580;28;20483;-76
2021/11/13 10:37:06;;;;;;;28.00;15.70;;;8.90;83.30;;;;;;5089100;28;20463;-75
2021/11/13 10:39:37;;;;;;;29.43;17.43;;;8.90;83.60;;;;;;5093301;28;20398;-77
2021/11/13 10:42:12;;;;;;;30.33;17.30;;;8.80;84.40;;;;;;5092774;28;20425;-77
2021/11/13 10:44:48;;;;;;;29.53;17.03;;;8.70;85.20;;;;;;5094821;28;20449;-75
2021/11/13 10:47:17;;;;;;;31.50;17.10;;;8.70;85.60;;;;;;5091682;28;20433;-77
2021/11/13 10:49:44;;;;;;;31.67;17.47;;;8.80;85.30;;;;;;5102616;28;20764;-77
2021/11/13 10:52:10;;;;;;;30.70;17.00;;;8.80;85.30;;;;;;5089785;28;20433;-77
2021/11/13 10:54:40;;;;;;;31.30;17.47;;;8.60;85.30;;;;;;5090453;28;20441;-76
2021/11/13 10:57:07;;;;;;;30.50;17.20;;;8.50;85.60;;;;;;5089740;28;20495;-77
2021/11/13 10:59:42;;;;;;;35.90;18.97;;;8.50;85.70;;;;;;5089479;28;20433;-76
2021/11/13 11:02:15;;;;;;;31.43;18.07;;;8.40;85.70;;;;;;5090476;28;21113;-76
2021/11/13 11:04:42;;;;;;;29.50;16.63;;;8.40;86.20;;;;;;5088338;28;20975;-75
2021/11/13 11:07:14;;;;;;;25.37;17.30;;;8.20;86.20;;;;;;5090343;28;20453;-76
2021/11/13 11:09:43;;;;;;;30.23;17.77;;;8.10;86.80;;;;;;5096820;28;20531;-76
2021/11/13 11:12:12;;;;;;;30.70;17.90;;;8.10;86.90;;;;;;5092166;28;20472;-76
2021/11/13 11:14:46;;;;;;;26.73;17.17;;;8.10;86.80;;;;;;5094640;28;20440;-75
2021/11/13 11:17:25;;;;;;;28.60;17.30;;;7.90;87.40;;;;;;5091978;28;20867;-77
2021/11/13 11:19:54;;;;;;;33.27;18.53;;;7.90;88.00;;;;;;5090471;28;20508;-76
2021/11/13 11:22:24;;;;;;;31.60;17.50;;;7.90;88.30;;;;;;5092565;28;20426;-77
2021/11/13 11:25:26;;;;;;;32.20;18.60;;;7.90;88.10;;;;;;5090083;28;20499;-77
2021/11/13 11:27:52;;;;;;;31.50;19.00;;;7.90;88.00;;;;;;5021285;28;20451;-76
2021/11/13 11:30:24;;;;;;;28.60;16.87;;;8.00;88.30;;;;;;5021022;28;20954;-76
2021/11/13 11:32:53;;;;;;;25.80;16.73;;;8.00;88.10;;;;;;5023738;28;20435;-77
2021/11/13 11:35:42;;;;;;;29.23;19.30;;;8.10;88.00;;;;;;5010895;28;21193;-76
2021/11/13 11:38:12;;;;;;;29.47;17.87;;;8.10;87.80;;;;;;5027587;28;20563;-77
2021/11/13 11:40:43;;;;;;;28.20;17.97;;;8.10;88.00;;;;;;5024374;28;20475;-77
2021/11/13 11:43:12;;;;;;;33.57;18.87;;;8.10;88.10;;;;;;5028625;28;20419;-77
2021/11/13 11:45:41;;;;;;;30.80;17.50;;;8.10;88.40;;;;;;5027637;28;20439;-77
2021/11/13 11:48:12;;;;;;;32.60;18.13;;;8.10;88.90;;;;;;5021934;28;20444;-75
2021/11/13 11:50:38;;;;;;;31.30;19.13;;;8.20;88.70;;;;;;5024900;28;20420;-76
2021/11/13 11:53:10;;;;;;;30.30;18.40;;;8.30;88.70;;;;;;5010495;28;20801;-76
2021/11/13 11:55:38;;;;;;;31.47;19.93;;;8.40;88.40;;;;;;5020972;28;20491;-77
2021/11/13 11:58:12;;;;;;;32.77;20.00;;;8.40;88.00;;;;;;5020907;28;20444;-77
2021/11/13 12:00:40;;;;;;;34.47;19.00;;;8.40;87.80;;;;;;5030791;28;20443;-77
2021/11/13 12:03:06;;;;;;;38.83;18.73;;;8.40;88.00;;;;;;5026511;28;20420;-76
2021/11/13 12:05:37;;;;;;;39.63;19.60;;;8.50;87.80;;;;;;5091699;28;20460;-77
2021/11/13 12:08:35;;;;;;;34.90;20.03;;;8.50;87.80;;;;;;5094555;28;20441;-78
2021/11/13 12:11:21;;;;;;;30.23;18.23;;;8.60;87.40;;;;;;5052230;28;20461;-77
2021/11/13 12:13:47;;;;;;;35.13;20.00;;;8.60;87.10;;;;;;5051387;28;20470;-77
2021/11/13 12:16:25;;;;;;;28.40;18.67;;;8.60;87.00;;;;;;5035350;28;20459;-76
2021/11/13 12:18:51;;;;;;;38.07;19.53;;;8.70;87.00;;;;;;5046968;28;20537;-77
2021/11/13 12:21:17;;;;;;;32.70;19.17;;;8.90;86.80;;;;;;5052075;28;20476;-76
2021/11/13 12:23:46;;;;;;;34.53;18.93;;;9.00;86.50;;;;;;5051339;28;20474;-78
2021/11/13 12:26:32;;;;;;;32.10;19.57;;;9.00;86.00;;;;;;5032339;28;20984;-77
2021/11/13 12:29:00;;;;;;;27.53;17.33;;;9.10;85.70;;;;;;5048413;28;20424;-76
2021/11/13 12:31:37;;;;;;;33.30;20.60;;;9.20;85.50;;;;;;5050280;28;20434;-76
2021/11/13 12:34:04;;;;;;;33.40;19.20;;;9.30;85.50;;;;;;5031575;28;20435;-76
2021/11/13 12:36:32;;;;;;;35.33;20.23;;;9.40;85.20;;;;;;5034385;28;20449;-76
2021/11/13 12:39:03;;;;;;;33.17;19.67;;;9.50;84.90;;;;;;5052619;28;20427;-76
2021/11/13 12:42:09;;;;;;;28.30;18.10;;;9.50;83.60;;;;;;5049677;28;20439;-77